sensor_id;sensor_type;location;lat;lon;timestamp;temperature;humidity
12688;DHT22;6408;59.388;17.798;2023-11-21T00:01:42;0.70;99.90
12688;DHT22;6408;59.388;17.798;2023-11-21T00:04:17;0.70;99.90
12688;DHT22;6408;59.388;17.798;2023-11-21T00:06:55;0.70;99.90
12688;DHT22;6408;59.388;17.798;2023-11-21T00:09:26;0.80;99.90
12688;DHT22;6408;59.388;17.798;2023-11-21T00:11:59;0.80;99.90
12688;DHT22;6408;59.388;17.798;2023-11-21T00:14:27;0.80;99.90
12688;DHT22;6408;59.388;17.798;2023-11-21T00:16:56;0.80;99.90
12688;DHT22;6408;59.388;17.798;2023-11-21T00:19:26;0.80;99.90
12688;DHT22;6408;59.388;17.798;2023-11-21T00:21:54;0.90;99.90
12688;DHT22;6408;59.388;17.798;2023-11-21T00:24:28;0.90;99.90
12688;DHT22;6408;59.388;17.798;2023-11-21T00:27:09;0.80;99.90
12688;DHT22;6408;59.388;17.798;2023-11-21T00:29:38;0.80;99.90
12688;DHT22;6408;59.388;17.798;2023-11-21T00:32:07;0.80;99.90
12688;DHT22;6408;59.388;17.798;2023-11-21T00:34:34;0.90;99.90
12688;DHT22;6408;59.388;17.798;2023-11-21T00:37:02;0.90;99.90
12688;DHT22;6408;59.388;17.798;2023-11-21T00:39:33;0.90;99.90
12688;DHT22;6408;59.388;17.798;2023-11-21T00:42:01;0.80;99.90
12688;DHT22;6408;59.388;17.798;2023-11-21T00:44:30;0.90;99.90
12688;DHT22;6408;59.388;17.798;2023-11-21T00:46:59;0.80;99.90
12688;DHT22;6408;59.388;17.798;2023-11-21T00:49:31;0.80;99.90
12688;DHT22;6408;59.388;17.798;2023-11-21T00:51:58;0.90;99.90
12688;DHT22;6408;59.388;17.798;2023-11-21T00:54:27;0.90;99.90
12688;DHT22;6408;59.388;17.798;2023-11-21T00:56:58;0.90;99.90
12688;DHT22;6408;59.388;17.798;2023-11-21T00:59:25;1.00;99.90
12688;DHT22;6408;59.388;17.798;2023-11-21T01:01:53;0.90;99.90
12688;DHT22;6408;59.388;17.798;2023-11-21T01:04:20;0.80;99.90
12688;DHT22;6408;59.388;17.798;2023-11-21T01:06:52;0.90;99.90
12688;DHT22;6408;59.388;17.798;2023-11-21T01:09:23;0.80;99.90
12688;DHT22;6408;59.388;17.798;2023-11-21T01:11:51;0.90;99.90
12688;DHT22;6408;59.388;17.798;2023-11-21T01:14:27;0.90;99.90
12688;DHT22;6408;59.388;17.798;2023-11-21T01:16:57;0.90;99.90
12688;DHT22;6408;59.388;17.798;2023-11-21T01:19:27;0.90;99.90
12688;DHT22;6408;59.388;17.798;2023-11-21T01:21:55;0.90;99.90
12688;DHT22;6408;59.388;17.798;2023-11-21T01:24:32;0.90;99.90
12688;DHT22;6408;59.388;17.798;2023-11-21T01:27:01;0.90;99.90
12688;DHT22;6408;59.388;17.798;2023-11-21T01:29:35;1.00;99.90
12688;DHT22;6408;59.388;17.798;2023-11-21T01:32:08;1.00;99.90
12688;DHT22;6408;59.388;17.798;2023-11-21T01:34:39;1.00;99.90
12688;DHT22;6408;59.388;17.798;2023-11-21T01:37:06;1.00;99.90
12688;DHT22;6408;59.388;17.798;2023-11-21T01:39:34;1.20;99.90
12688;DHT22;6408;59.388;17.798;2023-11-21T01:42:03;1.10;99.90
12688;DHT22;6408;59.388;17.798;2023-11-21T01:44:38;1.00;99.90
12688;DHT22;6408;59.388;17.798;2023-11-21T01:47:08;1.00;99.90
12688;DHT22;6408;59.388;17.798;2023-11-21T01:49:36;1.00;99.90
12688;DHT22;6408;59.388;17.798;2023-11-21T01:52:07;1.00;99.90
12688;DHT22;6408;59.388;17.798;2023-11-21T01:54:34;1.00;99.90
12688;DHT22;6408;59.388;17.798;2023-11-21T01:57:04;1.00;99.90
12688;DHT22;6408;59.388;17.798;2023-11-21T01:59:38;1.00;99.90
12688;DHT22;6408;59.388;17.798;2023-11-21T02:02:11;1.00;99.90
12688;DHT22;6408;59.388;17.798;2023-11-21T02:04:39;1.00;99.90
12688;DHT22;6408;59.388;17.798;2023-11-21T02:07:11;1.10;99.90
12688;DHT22;6408;59.388;17.798;2023-11-21T02:09:39;1.00;99.90
12688;DHT22;6408;59.388;17.798;2023-11-21T02:12:14;1.10;99.90
12688;DHT22;6408;59.388;17.798;2023-11-21T02:14:45;1.10;99.90
12688;DHT22;6408;59.388;17.798;2023-11-21T02:17:22;1.10;99.90
12688;DHT22;6408;59.388;17.798;2023-11-21T02:19:49;1.10;99.90
12688;DHT22;6408;59.388;17.798;2023-11-21T02:22:19;1.10;99.90
12688;DHT22;6408;59.388;17.798;2023-11-21T02:24:52;1.00;99.90
12688;DHT22;6408;59.388;17.798;2023-11-21T02:27:19;1.10;99.90
12688;DHT22;6408;59.388;17.798;2023-11-21T02:29:49;1.00;99.90
12688;DHT22;6408;59.388;17.798;2023-11-21T02:32:16;1.10;99.90
12688;DHT22;6408;59.388;17.798;2023-11-21T02:34:48;1.10;99.90
12688;DHT22;6408;59.388;17.798;2023-11-21T02:40:24;1.10;99.90
12688;DHT22;6408;59.388;17.798;2023-11-21T02:43:00;1.00;99.90
12688;DHT22;6408;59.388;17.798;2023-11-21T02:45:28;1.10;99.90
12688;DHT22;6408;59.388;17.798;2023-11-21T02:47:56;1.10;99.90
12688;DHT22;6408;59.388;17.798;2023-11-21T02:50:25;1.10;99.90
12688;DHT22;6408;59.388;17.798;2023-11-21T02:52:52;1.20;99.90
12688;DHT22;6408;59.388;17.798;2023-11-21T02:55:22;1.20;99.90
12688;DHT22;6408;59.388;17.798;2023-11-21T02:57:51;1.10;99.90
12688;DHT22;6408;59.388;17.798;2023-11-21T03:00:23;1.10;99.90
12688;DHT22;6408;59.388;17.798;2023-11-21T03:02:52;1.20;99.90
12688;DHT22;6408;59.388;17.798;2023-11-21T03:05:23;1.10;99.90
12688;DHT22;6408;59.388;17.798;2023-11-21T03:07:51;1.10;99.90
12688;DHT22;6408;59.388;17.798;2023-11-21T03:10:28;1.20;99.90
12688;DHT22;6408;59.388;17.798;2023-11-21T03:12:55;1.10;99.90
12688;DHT22;6408;59.388;17.798;2023-11-21T03:15:36;1.10;99.90
12688;DHT22;6408;59.388;17.798;2023-11-21T03:18:03;1.10;99.90
12688;DHT22;6408;59.388;17.798;2023-11-21T03:20:31;1.10;99.90
12688;DHT22;6408;59.388;17.798;2023-11-21T03:22:57;1.20;99.90
12688;DHT22;6408;59.388;17.798;2023-11-21T03:25:28;1.20;99.90
12688;DHT22;6408;59.388;17.798;2023-11-21T03:27:56;1.10;99.90
12688;DHT22;6408;59.388;17.798;2023-11-21T03:30:29;1.20;99.90
12688;DHT22;6408;59.388;17.798;2023-11-21T03:32:56;1.20;99.90
12688;DHT22;6408;59.388;17.798;2023-11-21T03:35:24;1.20;99.90
12688;DHT22;6408;59.388;17.798;2023-11-21T03:37:52;1.20;99.90
12688;DHT22;6408;59.388;17.798;2023-11-21T03:40:20;1.20;99.90
12688;DHT22;6408;59.388;17.798;2023-11-21T03:42:56;1.30;99.90
12688;DHT22;6408;59.388;17.798;2023-11-21T03:45:46;1.30;99.90
12688;DHT22;6408;59.388;17.798;2023-11-21T03:51:29;1.20;99.90
12688;DHT22;6408;59.388;17.798;2023-11-21T03:53:58;1.20;99.90
12688;DHT22;6408;59.388;17.798;2023-11-21T03:56:25;1.20;99.90
12688;DHT22;6408;59.388;17.798;2023-11-21T03:58:58;1.20;99.90
12688;DHT22;6408;59.388;17.798;2023-11-21T04:01:30;1.40;99.90
12688;DHT22;6408;59.388;17.798;2023-11-21T04:03:57;1.40;99.90
12688;DHT22;6408;59.388;17.798;2023-11-21T04:06:39;1.40;99.90
12688;DHT22;6408;59.388;17.798;2023-11-21T04:09:07;1.40;99.90
12688;DHT22;6408;59.388;17.798;2023-11-21T04:11:35;1.40;99.90
12688;DHT22;6408;59.388;17.798;2023-11-21T04:14:04;1.40;99.90
12688;DHT22;6408;59.388;17.798;2023-11-21T04:16:33;1.40;99.90
12688;DHT22;6408;59.388;17.798;2023-11-21T04:19:02;1.40;99.90
12688;DHT22;6408;59.388;17.798;2023-11-21T04:21:35;1.40;99.90
12688;DHT22;6408;59.388;17.798;2023-11-21T04:24:04;1.40;99.90
12688;DHT22;6408;59.388;17.798;2023-11-21T04:26:31;1.40;99.90
12688;DHT22;6408;59.388;17.798;2023-11-21T04:29:00;1.30;99.90
12688;DHT22;6408;59.388;17.798;2023-11-21T04:31:31;1.30;99.90
12688;DHT22;6408;59.388;17.798;2023-11-21T04:34:10;1.30;99.90
12688;DHT22;6408;59.388;17.798;2023-11-21T04:36:40;1.40;99.90
12688;DHT22;6408;59.388;17.798;2023-11-21T04:39:10;1.40;99.90
12688;DHT22;6408;59.388;17.798;2023-11-21T04:41:39;1.40;99.90
12688;DHT22;6408;59.388;17.798;2023-11-21T04:44:07;1.30;99.90
12688;DHT22;6408;59.388;17.798;2023-11-21T04:46:37;1.40;99.90
12688;DHT22;6408;59.388;17.798;2023-11-21T04:49:12;1.40;99.90
12688;DHT22;6408;59.388;17.798;2023-11-21T04:51:46;1.40;99.90
12688;DHT22;6408;59.388;17.798;2023-11-21T04:54:18;1.40;99.90
12688;DHT22;6408;59.388;17.798;2023-11-21T04:56:46;1.40;99.90
12688;DHT22;6408;59.388;17.798;2023-11-21T04:59:16;1.40;99.90
12688;DHT22;6408;59.388;17.798;2023-11-21T05:01:50;1.30;99.90
12688;DHT22;6408;59.388;17.798;2023-11-21T05:04:23;1.40;99.90
12688;DHT22;6408;59.388;17.798;2023-11-21T05:07:07;1.40;99.90
12688;DHT22;6408;59.388;17.798;2023-11-21T05:09:43;1.40;99.90
12688;DHT22;6408;59.388;17.798;2023-11-21T05:12:17;1.40;99.90
12688;DHT22;6408;59.388;17.798;2023-11-21T05:15:01;1.40;99.90
12688;DHT22;6408;59.388;17.798;2023-11-21T05:17:35;1.40;99.90
12688;DHT22;6408;59.388;17.798;2023-11-21T05:20:08;1.30;99.90
12688;DHT22;6408;59.388;17.798;2023-11-21T05:22:35;1.40;99.90
12688;DHT22;6408;59.388;17.798;2023-11-21T05:25:23;1.40;99.90
12688;DHT22;6408;59.388;17.798;2023-11-21T05:28:07;1.40;99.90
12688;DHT22;6408;59.388;17.798;2023-11-21T05:30:35;1.40;99.90
12688;DHT22;6408;59.388;17.798;2023-11-21T05:33:16;1.40;99.90
12688;DHT22;6408;59.388;17.798;2023-11-21T05:35:44;1.40;99.90
12688;DHT22;6408;59.388;17.798;2023-11-21T05:38:16;1.40;99.90
12688;DHT22;6408;59.388;17.798;2023-11-21T05:40:50;1.40;99.90
12688;DHT22;6408;59.388;17.798;2023-11-21T05:43:17;1.40;99.90
12688;DHT22;6408;59.388;17.798;2023-11-21T05:45:48;1.40;99.90
12688;DHT22;6408;59.388;17.798;2023-11-21T05:51:45;1.40;99.90
12688;DHT22;6408;59.388;17.798;2023-11-21T05:54:13;1.40;99.90
12688;DHT22;6408;59.388;17.798;2023-11-21T05:56:53;1.40;99.90
12688;DHT22;6408;59.388;17.798;2023-11-21T05:59:21;1.40;99.90
12688;DHT22;6408;59.388;17.798;2023-11-21T06:01:50;1.30;99.90
12688;DHT22;6408;59.388;17.798;2023-11-21T06:04:18;1.40;99.90
12688;DHT22;6408;59.388;17.798;2023-11-21T06:06:53;1.30;99.90
12688;DHT22;6408;59.388;17.798;2023-11-21T06:09:23;1.30;99.90
12688;DHT22;6408;59.388;17.798;2023-11-21T06:12:03;1.30;99.90
12688;DHT22;6408;59.388;17.798;2023-11-21T06:14:39;1.30;99.90
12688;DHT22;6408;59.388;17.798;2023-11-21T06:17:10;1.30;99.90
12688;DHT22;6408;59.388;17.798;2023-11-21T06:19:39;1.40;99.90
12688;DHT22;6408;59.388;17.798;2023-11-21T06:22:28;1.30;99.90
12688;DHT22;6408;59.388;17.798;2023-11-21T06:25:01;1.30;99.90
12688;DHT22;6408;59.388;17.798;2023-11-21T06:27:34;1.30;99.90
12688;DHT22;6408;59.388;17.798;2023-11-21T06:30:02;1.40;99.90
12688;DHT22;6408;59.388;17.798;2023-11-21T06:32:30;1.40;99.90
12688;DHT22;6408;59.388;17.798;2023-11-21T06:34:59;1.30;99.90
12688;DHT22;6408;59.388;17.798;2023-11-21T06:37:29;1.30;99.90
12688;DHT22;6408;59.388;17.798;2023-11-21T06:39:59;1.30;99.90
12688;DHT22;6408;59.388;17.798;2023-11-21T06:42:27;1.30;99.90
12688;DHT22;6408;59.388;17.798;2023-11-21T06:44:55;1.30;99.90
12688;DHT22;6408;59.388;17.798;2023-11-21T06:47:25;1.40;99.90
12688;DHT22;6408;59.388;17.798;2023-11-21T06:49:55;1.30;99.90
12688;DHT22;6408;59.388;17.798;2023-11-21T06:52:28;1.30;99.90
12688;DHT22;6408;59.388;17.798;2023-11-21T06:54:55;1.30;99.90
12688;DHT22;6408;59.388;17.798;2023-11-21T06:57:24;1.30;99.90
12688;DHT22;6408;59.388;17.798;2023-11-21T06:59:51;1.40;99.90
12688;DHT22;6408;59.388;17.798;2023-11-21T07:02:20;1.30;99.90
12688;DHT22;6408;59.388;17.798;2023-11-21T07:04:51;1.30;99.90
12688;DHT22;6408;59.388;17.798;2023-11-21T07:07:34;1.30;99.90
12688;DHT22;6408;59.388;17.798;2023-11-21T07:10:05;1.30;99.90
12688;DHT22;6408;59.388;17.798;2023-11-21T07:12:32;1.40;99.90
12688;DHT22;6408;59.388;17.798;2023-11-21T07:15:00;1.40;99.90
12688;DHT22;6408;59.388;17.798;2023-11-21T07:17:28;1.30;99.90
12688;DHT22;6408;59.388;17.798;2023-11-21T07:19:58;1.30;99.90
12688;DHT22;6408;59.388;17.798;2023-11-21T07:22:26;1.30;99.90
12688;DHT22;6408;59.388;17.798;2023-11-21T07:24:59;1.30;99.90
12688;DHT22;6408;59.388;17.798;2023-11-21T07:27:27;1.30;99.90
12688;DHT22;6408;59.388;17.798;2023-11-21T07:29:54;1.30;99.90
12688;DHT22;6408;59.388;17.798;2023-11-21T07:32:22;1.30;99.90
12688;DHT22;6408;59.388;17.798;2023-11-21T07:34:49;1.30;99.90
12688;DHT22;6408;59.388;17.798;2023-11-21T07:37:19;1.40;99.90
12688;DHT22;6408;59.388;17.798;2023-11-21T07:39:47;1.30;99.90
12688;DHT22;6408;59.388;17.798;2023-11-21T07:42:34;1.30;99.90
12688;DHT22;6408;59.388;17.798;2023-11-21T07:45:02;1.40;99.90
12688;DHT22;6408;59.388;17.798;2023-11-21T07:47:32;1.40;99.90
12688;DHT22;6408;59.388;17.798;2023-11-21T07:50:00;1.40;99.90
12688;DHT22;6408;59.388;17.798;2023-11-21T07:52:39;1.40;99.90
12688;DHT22;6408;59.388;17.798;2023-11-21T07:55:10;1.40;99.90
12688;DHT22;6408;59.388;17.798;2023-11-21T07:57:44;1.40;99.90
12688;DHT22;6408;59.388;17.798;2023-11-21T08:00:13;1.40;99.90
12688;DHT22;6408;59.388;17.798;2023-11-21T08:02:42;1.40;99.90
12688;DHT22;6408;59.388;17.798;2023-11-21T08:05:14;1.40;99.90
12688;DHT22;6408;59.388;17.798;2023-11-21T08:07:42;1.40;99.90
12688;DHT22;6408;59.388;17.798;2023-11-21T08:10:09;1.40;99.90
12688;DHT22;6408;59.388;17.798;2023-11-21T08:15:24;1.40;99.90
12688;DHT22;6408;59.388;17.798;2023-11-21T08:17:51;1.40;99.90
12688;DHT22;6408;59.388;17.798;2023-11-21T08:20:21;1.50;99.90
12688;DHT22;6408;59.388;17.798;2023-11-21T08:22:50;1.40;99.90
12688;DHT22;6408;59.388;17.798;2023-11-21T08:25:20;1.30;99.90
12688;DHT22;6408;59.388;17.798;2023-11-21T08:27:47;1.30;99.90
12688;DHT22;6408;59.388;17.798;2023-11-21T08:30:15;1.30;99.90
12688;DHT22;6408;59.388;17.798;2023-11-21T08:32:50;1.40;99.90
12688;DHT22;6408;59.388;17.798;2023-11-21T08:35:19;1.30;99.90
12688;DHT22;6408;59.388;17.798;2023-11-21T08:37:56;1.40;99.90
12688;DHT22;6408;59.388;17.798;2023-11-21T08:40:26;1.40;99.90
12688;DHT22;6408;59.388;17.798;2023-11-21T08:42:53;1.30;99.90
12688;DHT22;6408;59.388;17.798;2023-11-21T08:45:21;1.30;99.90
12688;DHT22;6408;59.388;17.798;2023-11-21T08:47:53;1.30;99.90
12688;DHT22;6408;59.388;17.798;2023-11-21T08:50:23;1.30;99.90
12688;DHT22;6408;59.388;17.798;2023-11-21T08:52:52;1.30;99.90
12688;DHT22;6408;59.388;17.798;2023-11-21T08:55:21;1.30;99.90
12688;DHT22;6408;59.388;17.798;2023-11-21T08:57:48;1.30;99.90
12688;DHT22;6408;59.388;17.798;2023-11-21T09:00:17;1.30;99.90
12688;DHT22;6408;59.388;17.798;2023-11-21T09:02:47;1.30;99.90
12688;DHT22;6408;59.388;17.798;2023-11-21T09:05:17;1.30;99.90
12688;DHT22;6408;59.388;17.798;2023-11-21T09:07:57;1.30;99.90
12688;DHT22;6408;59.388;17.798;2023-11-21T09:10:27;1.40;99.90
12688;DHT22;6408;59.388;17.798;2023-11-21T09:12:59;1.40;99.90
12688;DHT22;6408;59.388;17.798;2023-11-21T09:15:26;1.40;99.90
12688;DHT22;6408;59.388;17.798;2023-11-21T09:17:58;1.40;99.90
12688;DHT22;6408;59.388;17.798;2023-11-21T09:20:31;1.40;99.90
12688;DHT22;6408;59.388;17.798;2023-11-21T09:22:59;1.30;99.90
12688;DHT22;6408;59.388;17.798;2023-11-21T09:25:27;1.30;99.90
12688;DHT22;6408;59.388;17.798;2023-11-21T09:28:08;1.30;99.90
12688;DHT22;6408;59.388;17.798;2023-11-21T09:30:37;1.30;99.90
12688;DHT22;6408;59.388;17.798;2023-11-21T09:33:05;1.30;99.90
12688;DHT22;6408;59.388;17.798;2023-11-21T09:35:40;1.40;99.90
12688;DHT22;6408;59.388;17.798;2023-11-21T09:38:11;1.40;99.90
12688;DHT22;6408;59.388;17.798;2023-11-21T09:40:40;1.40;99.90
12688;DHT22;6408;59.388;17.798;2023-11-21T09:43:09;1.50;99.90
12688;DHT22;6408;59.388;17.798;2023-11-21T09:45:45;1.50;99.90
12688;DHT22;6408;59.388;17.798;2023-11-21T09:48:13;1.50;99.90
12688;DHT22;6408;59.388;17.798;2023-11-21T09:50:47;1.50;99.90
12688;DHT22;6408;59.388;17.798;2023-11-21T09:53:21;1.50;99.90
12688;DHT22;6408;59.388;17.798;2023-11-21T09:55:57;1.60;99.90
12688;DHT22;6408;59.388;17.798;2023-11-21T09:58:27;1.70;99.90
12688;DHT22;6408;59.388;17.798;2023-11-21T10:00:57;1.70;99.90
12688;DHT22;6408;59.388;17.798;2023-11-21T10:03:35;1.80;99.90
12688;DHT22;6408;59.388;17.798;2023-11-21T10:06:08;1.80;99.90
12688;DHT22;6408;59.388;17.798;2023-11-21T10:08:40;1.80;99.90
12688;DHT22;6408;59.388;17.798;2023-11-21T10:11:11;2.00;99.90
12688;DHT22;6408;59.388;17.798;2023-11-21T10:13:40;2.20;99.90
12688;DHT22;6408;59.388;17.798;2023-11-21T10:16:10;2.30;99.90
12688;DHT22;6408;59.388;17.798;2023-11-21T10:18:45;2.30;99.90
12688;DHT22;6408;59.388;17.798;2023-11-21T10:21:16;2.30;99.90
12688;DHT22;6408;59.388;17.798;2023-11-21T10:23:44;2.30;99.90
12688;DHT22;6408;59.388;17.798;2023-11-21T10:26:13;2.30;99.90
12688;DHT22;6408;59.388;17.798;2023-11-21T10:28:54;2.10;99.90
12688;DHT22;6408;59.388;17.798;2023-11-21T10:31:22;2.00;99.90
12688;DHT22;6408;59.388;17.798;2023-11-21T10:33:49;2.00;99.90
12688;DHT22;6408;59.388;17.798;2023-11-21T10:36:27;2.10;99.90
12688;DHT22;6408;59.388;17.798;2023-11-21T10:38:55;2.10;99.90
12688;DHT22;6408;59.388;17.798;2023-11-21T10:41:23;2.10;99.90
12688;DHT22;6408;59.388;17.798;2023-11-21T10:43:54;2.00;99.90
12688;DHT22;6408;59.388;17.798;2023-11-21T10:46:22;2.00;99.90
12688;DHT22;6408;59.388;17.798;2023-11-21T10:48:54;1.90;99.90
12688;DHT22;6408;59.388;17.798;2023-11-21T10:51:22;1.80;99.90
12688;DHT22;6408;59.388;17.798;2023-11-21T10:53:51;1.90;99.90
12688;DHT22;6408;59.388;17.798;2023-11-21T10:56:23;1.80;99.90
12688;DHT22;6408;59.388;17.798;2023-11-21T10:58:51;1.70;99.90
12688;DHT22;6408;59.388;17.798;2023-11-21T11:01:22;1.70;99.90
12688;DHT22;6408;59.388;17.798;2023-11-21T11:03:55;1.70;99.90
12688;DHT22;6408;59.388;17.798;2023-11-21T11:06:24;1.70;99.90
12688;DHT22;6408;59.388;17.798;2023-11-21T11:08:55;1.70;99.90
12688;DHT22;6408;59.388;17.798;2023-11-21T11:11:22;1.70;99.90
12688;DHT22;6408;59.388;17.798;2023-11-21T11:13:53;1.60;99.90
12688;DHT22;6408;59.388;17.798;2023-11-21T11:16:20;1.70;99.90
12688;DHT22;6408;59.388;17.798;2023-11-21T11:18:53;1.70;99.90
12688;DHT22;6408;59.388;17.798;2023-11-21T11:21:31;1.70;99.90
12688;DHT22;6408;59.388;17.798;2023-11-21T11:27:01;1.70;99.90
12688;DHT22;6408;59.388;17.798;2023-11-21T11:29:41;1.70;99.90
12688;DHT22;6408;59.388;17.798;2023-11-21T11:32:19;1.70;99.90
12688;DHT22;6408;59.388;17.798;2023-11-21T11:34:53;1.70;99.90
12688;DHT22;6408;59.388;17.798;2023-11-21T11:37:24;1.60;99.90
12688;DHT22;6408;59.388;17.798;2023-11-21T11:39:53;1.70;99.90
12688;DHT22;6408;59.388;17.798;2023-11-21T11:42:22;1.70;99.90
12688;DHT22;6408;59.388;17.798;2023-11-21T11:44:54;1.60;99.90
12688;DHT22;6408;59.388;17.798;2023-11-21T11:47:26;1.70;99.90
12688;DHT22;6408;59.388;17.798;2023-11-21T11:50:01;1.70;99.90
12688;DHT22;6408;59.388;17.798;2023-11-21T11:52:33;1.60;99.90
12688;DHT22;6408;59.388;17.798;2023-11-21T11:55:04;1.60;99.90
12688;DHT22;6408;59.388;17.798;2023-11-21T11:57:31;1.50;99.90
12688;DHT22;6408;59.388;17.798;2023-11-21T12:00:15;1.60;99.90
12688;DHT22;6408;59.388;17.798;2023-11-21T12:02:46;1.60;99.90
12688;DHT22;6408;59.388;17.798;2023-11-21T12:05:17;1.60;99.90
12688;DHT22;6408;59.388;17.798;2023-11-21T12:07:51;1.60;99.90
12688;DHT22;6408;59.388;17.798;2023-11-21T12:10:23;1.50;99.90
12688;DHT22;6408;59.388;17.798;2023-11-21T12:12:55;1.60;99.90
12688;DHT22;6408;59.388;17.798;2023-11-21T12:15:24;1.50;99.90
12688;DHT22;6408;59.388;17.798;2023-11-21T12:17:54;1.50;99.90
12688;DHT22;6408;59.388;17.798;2023-11-21T12:20:24;1.50;99.90
12688;DHT22;6408;59.388;17.798;2023-11-21T12:22:54;1.50;99.90
12688;DHT22;6408;59.388;17.798;2023-11-21T12:25:25;1.50;99.90
12688;DHT22;6408;59.388;17.798;2023-11-21T12:27:55;1.50;99.90
12688;DHT22;6408;59.388;17.798;2023-11-21T12:30:28;1.40;99.90
12688;DHT22;6408;59.388;17.798;2023-11-21T12:32:59;1.30;99.90
12688;DHT22;6408;59.388;17.798;2023-11-21T12:35:27;1.30;99.90
12688;DHT22;6408;59.388;17.798;2023-11-21T12:37:57;1.50;99.90
12688;DHT22;6408;59.388;17.798;2023-11-21T12:40:27;1.60;99.90
12688;DHT22;6408;59.388;17.798;2023-11-21T12:42:56;1.60;99.90
12688;DHT22;6408;59.388;17.798;2023-11-21T12:45:25;1.50;99.90
12688;DHT22;6408;59.388;17.798;2023-11-21T12:47:56;1.50;99.90
12688;DHT22;6408;59.388;17.798;2023-11-21T12:50:26;1.40;99.90
12688;DHT22;6408;59.388;17.798;2023-11-21T12:53:00;1.40;99.90
12688;DHT22;6408;59.388;17.798;2023-11-21T12:55:32;1.30;99.90
12688;DHT22;6408;59.388;17.798;2023-11-21T12:58:03;1.30;99.90
12688;DHT22;6408;59.388;17.798;2023-11-21T13:00:35;1.20;99.90
12688;DHT22;6408;59.388;17.798;2023-11-21T13:03:05;1.10;99.90
12688;DHT22;6408;59.388;17.798;2023-11-21T13:05:34;1.00;99.90
12688;DHT22;6408;59.388;17.798;2023-11-21T13:08:06;1.00;99.90
12688;DHT22;6408;59.388;17.798;2023-11-21T13:10:37;0.90;99.90
12688;DHT22;6408;59.388;17.798;2023-11-21T13:13:06;0.80;99.90
12688;DHT22;6408;59.388;17.798;2023-11-21T13:15:35;0.80;99.90
12688;DHT22;6408;59.388;17.798;2023-11-21T13:18:09;0.80;99.90
12688;DHT22;6408;59.388;17.798;2023-11-21T13:20:37;0.80;99.90
12688;DHT22;6408;59.388;17.798;2023-11-21T13:23:08;0.80;99.90
12688;DHT22;6408;59.388;17.798;2023-11-21T13:25:42;0.70;99.90
12688;DHT22;6408;59.388;17.798;2023-11-21T13:28:11;0.70;99.90
12688;DHT22;6408;59.388;17.798;2023-11-21T13:30:41;0.70;99.90
12688;DHT22;6408;59.388;17.798;2023-11-21T13:33:10;0.70;99.90
12688;DHT22;6408;59.388;17.798;2023-11-21T13:35:44;0.80;99.90
12688;DHT22;6408;59.388;17.798;2023-11-21T13:38:19;0.80;99.90
12688;DHT22;6408;59.388;17.798;2023-11-21T13:40:52;0.80;99.90
12688;DHT22;6408;59.388;17.798;2023-11-21T13:43:25;0.80;99.90
12688;DHT22;6408;59.388;17.798;2023-11-21T13:46:00;0.80;99.90
12688;DHT22;6408;59.388;17.798;2023-11-21T13:48:35;0.80;99.90
12688;DHT22;6408;59.388;17.798;2023-11-21T13:51:08;0.70;99.90
12688;DHT22;6408;59.388;17.798;2023-11-21T13:53:43;0.60;99.90
12688;DHT22;6408;59.388;17.798;2023-11-21T13:56:16;0.50;99.90
12688;DHT22;6408;59.388;17.798;2023-11-21T13:58:49;0.50;99.90
12688;DHT22;6408;59.388;17.798;2023-11-21T14:01:18;0.40;99.90
12688;DHT22;6408;59.388;17.798;2023-11-21T14:04:08;0.30;99.90
12688;DHT22;6408;59.388;17.798;2023-11-21T14:06:45;0.20;99.90
12688;DHT22;6408;59.388;17.798;2023-11-21T14:09:17;0.20;99.90
12688;DHT22;6408;59.388;17.798;2023-11-21T14:11:51;0.10;99.90
12688;DHT22;6408;59.388;17.798;2023-11-21T14:14:21;0.10;99.90
12688;DHT22;6408;59.388;17.798;2023-11-21T14:16:51;0.10;99.90
12688;DHT22;6408;59.388;17.798;2023-11-21T14:19:19;0.00;99.90
12688;DHT22;6408;59.388;17.798;2023-11-21T14:21:47;0.00;99.90
12688;DHT22;6408;59.388;17.798;2023-11-21T14:24:16;-0.10;99.90
12688;DHT22;6408;59.388;17.798;2023-11-21T14:26:46;-0.10;99.90
12688;DHT22;6408;59.388;17.798;2023-11-21T14:29:19;-0.10;99.90
12688;DHT22;6408;59.388;17.798;2023-11-21T14:31:50;0.00;99.90
12688;DHT22;6408;59.388;17.798;2023-11-21T14:34:22;-0.10;99.90
12688;DHT22;6408;59.388;17.798;2023-11-21T14:36:52;-0.10;99.90
12688;DHT22;6408;59.388;17.798;2023-11-21T14:39:20;-0.20;99.90
12688;DHT22;6408;59.388;17.798;2023-11-21T14:41:50;-0.20;99.90
12688;DHT22;6408;59.388;17.798;2023-11-21T14:44:24;-0.20;99.90
12688;DHT22;6408;59.388;17.798;2023-11-21T14:46:57;-0.20;99.90
12688;DHT22;6408;59.388;17.798;2023-11-21T14:49:27;-0.20;99.90
12688;DHT22;6408;59.388;17.798;2023-11-21T14:52:06;-0.30;99.90
12688;DHT22;6408;59.388;17.798;2023-11-21T14:54:44;-0.40;99.90
12688;DHT22;6408;59.388;17.798;2023-11-21T14:57:15;-0.40;99.90
12688;DHT22;6408;59.388;17.798;2023-11-21T14:59:48;-0.40;99.90
12688;DHT22;6408;59.388;17.798;2023-11-21T15:02:23;-0.50;99.90
12688;DHT22;6408;59.388;17.798;2023-11-21T15:05:10;-0.50;99.90
12688;DHT22;6408;59.388;17.798;2023-11-21T15:07:42;-0.50;99.90
12688;DHT22;6408;59.388;17.798;2023-11-21T15:10:11;-0.50;99.90
12688;DHT22;6408;59.388;17.798;2023-11-21T15:12:43;-0.60;99.90
12688;DHT22;6408;59.388;17.798;2023-11-21T15:15:13;-0.60;99.90
12688;DHT22;6408;59.388;17.798;2023-11-21T15:17:47;-0.70;99.90
12688;DHT22;6408;59.388;17.798;2023-11-21T15:20:17;-0.70;99.90
12688;DHT22;6408;59.388;17.798;2023-11-21T15:22:48;-0.60;99.90
12688;DHT22;6408;59.388;17.798;2023-11-21T15:25:21;-0.60;99.90
12688;DHT22;6408;59.388;17.798;2023-11-21T15:27:51;-0.60;99.90
12688;DHT22;6408;59.388;17.798;2023-11-21T15:30:23;-0.60;99.90
12688;DHT22;6408;59.388;17.798;2023-11-21T15:32:54;-0.60;99.90
12688;DHT22;6408;59.388;17.798;2023-11-21T15:35:23;-0.60;99.90
12688;DHT22;6408;59.388;17.798;2023-11-21T15:37:56;-0.70;99.90
12688;DHT22;6408;59.388;17.798;2023-11-21T15:40:38;-0.60;99.90
12688;DHT22;6408;59.388;17.798;2023-11-21T15:43:08;-0.50;99.90
12688;DHT22;6408;59.388;17.798;2023-11-21T15:45:44;-0.40;99.90
12688;DHT22;6408;59.388;17.798;2023-11-21T15:48:17;-0.40;99.90
12688;DHT22;6408;59.388;17.798;2023-11-21T15:50:47;-0.40;99.90
12688;DHT22;6408;59.388;17.798;2023-11-21T15:53:22;-0.40;99.90
12688;DHT22;6408;59.388;17.798;2023-11-21T15:56:05;-0.30;99.90
12688;DHT22;6408;59.388;17.798;2023-11-21T15:58:38;-0.30;99.90
12688;DHT22;6408;59.388;17.798;2023-11-21T16:01:12;-0.30;99.90
12688;DHT22;6408;59.388;17.798;2023-11-21T16:03:48;-0.20;99.90
12688;DHT22;6408;59.388;17.798;2023-11-21T16:06:16;-0.20;99.90
12688;DHT22;6408;59.388;17.798;2023-11-21T16:08:47;-0.30;99.90
12688;DHT22;6408;59.388;17.798;2023-11-21T16:11:20;-0.20;99.90
12688;DHT22;6408;59.388;17.798;2023-11-21T16:13:52;-0.30;99.90
12688;DHT22;6408;59.388;17.798;2023-11-21T16:16:27;-0.30;99.90
12688;DHT22;6408;59.388;17.798;2023-11-21T16:18:56;-0.40;99.90
12688;DHT22;6408;59.388;17.798;2023-11-21T16:21:26;-0.50;99.90
12688;DHT22;6408;59.388;17.798;2023-11-21T16:24:00;-0.50;99.90
12688;DHT22;6408;59.388;17.798;2023-11-21T16:26:33;-0.60;99.90